Khanewal Weather



Khanewal's Current Weather

Temprature 26o smoke

smoke

Rain: 0 %

Min Temprature26o
Max Temprature26o
Humidity57
Wind Speed3.25 m/h
Sun Rise05:39:09
Sun Set18:42:39
Current Time: 21-Apr-2019 05:43:27
Lat/Lon: 30.3, 71.93




Khanewal's Geo Location



Khanewal's Weather Forecast

Time Overall Temp Min Temp Max Temp Humidity Wind Speed Rain
21-Apr-2019 (Sun)
08:00:00 clear sky 28.700 28.700 29.939 25 2.43 m/h 0 %
11:00:00 clear sky 34.330 34.330 35.150 17 2.7 m/h 0 %
14:00:00 clear sky 37.840 37.840 38.250 14 2.85 m/h 0 %
17:00:00 clear sky 38.550 38.550 38.550 13 1.98 m/h 0 %
20:00:00 clear sky 33.950 33.950 33.950 18 0.84 m/h 0 %
23:00:00 clear sky 32.480 32.480 32.480 19 3.73 m/h 0 %
22-Apr-2019 (Mon)
02:00:00 clear sky 29.770 29.770 29.770 24 2.97 m/h 0 %
05:00:00 clear sky 28.234 28.234 28.234 27 2.7 m/h 0 %
08:00:00 clear sky 31.566 31.566 31.566 23 2.16 m/h 0 %
11:00:00 clear sky 37.320 37.320 37.320 16 1.6 m/h 0 %
14:00:00 clear sky 40.815 40.815 40.815 11 0.7 m/h 0 %
17:00:00 clear sky 41.031 41.031 41.031 9 1.04 m/h 0 %
20:00:00 clear sky 36.550 36.550 36.550 12 1.48 m/h 0 %
23:00:00 clear sky 34.396 34.396 34.396 14 2.6 m/h 0 %
23-Apr-2019 (Tue)
02:00:00 clear sky 31.877 31.877 31.877 20 3.61 m/h 0 %
05:00:00 scattered clouds 29.676 29.676 29.676 23 2.3 m/h 0 %
08:00:00 broken clouds 32.947 32.947 32.947 21 4.01 m/h 0 %
11:00:00 scattered clouds 39.050 39.050 39.050 13 2.49 m/h 0 %
14:00:00 clear sky 42.250 42.250 42.250 9 2.55 m/h 0 %
17:00:00 clear sky 42.450 42.450 42.450 9 4.26 m/h 0 %
20:00:00 few clouds 37.828 37.828 37.828 12 1.77 m/h 0 %
23:00:00 broken clouds 36.050 36.050 36.050 13 3.86 m/h 0 %
24-Apr-2019 (Wed)
02:00:00 broken clouds 33.182 33.182 33.182 13 1.9 m/h 0 %
05:00:00 scattered clouds 31.914 31.914 31.914 15 3.66 m/h 0 %
08:00:00 clear sky 34.450 34.450 34.450 19 4.91 m/h 0 %
11:00:00 clear sky 39.308 39.308 39.308 14 4.15 m/h 0 %
14:00:00 scattered clouds 41.250 41.250 41.250 12 5.16 m/h 0 %
17:00:00 few clouds 39.750 39.750 39.750 14 6.92 m/h 0 %
20:00:00 overcast clouds 35.055 35.055 35.055 20 8.3 m/h 0 %
23:00:00 broken clouds 30.645 30.645 30.645 33 7.41 m/h 0 %
25-Apr-2019 (Thu)
02:00:00 overcast clouds 28.950 28.950 28.950 40 4.62 m/h 0 %
05:00:00 overcast clouds 27.832 27.832 27.832 46 2.74 m/h 0 %
08:00:00 broken clouds 30.620 30.620 30.620 34 5.12 m/h 0 %
11:00:00 scattered clouds 36.090 36.090 36.090 21 3.56 m/h 0 %
14:00:00 clear sky 38.450 38.450 38.450 16 2.96 m/h 0 %
17:00:00 clear sky 38.911 38.911 38.911 14 2.69 m/h 0 %
20:00:00 clear sky 35.125 35.125 35.125 18 4.2 m/h 0 %
23:00:00 clear sky 31.843 31.843 31.843 26 2.4 m/h 0 %
26-Apr-2019 (Fri)
02:00:00 clear sky 30.232 30.232 30.232 30 2.44 m/h 0 %
05:00:00 clear sky 29.416 29.416 29.416 28 2.97 m/h 0 %

Famous Cities (60)